createdAt,value
2023-05-02T00:02:15.274Z,99.90
2023-05-02T00:04:43.534Z,99.90
2023-05-02T00:07:13.289Z,99.90
2023-05-02T00:09:41.405Z,99.90
2023-05-02T00:12:09.387Z,99.90
2023-05-02T00:14:37.314Z,99.90
2023-05-02T00:17:05.237Z,99.90
2023-05-02T00:19:33.345Z,99.90
2023-05-02T00:22:01.718Z,99.90
2023-05-02T00:24:31.039Z,99.90
2023-05-02T00:26:58.940Z,99.90
2023-05-02T00:29:26.881Z,99.90
2023-05-02T00:31:54.791Z,99.90
2023-05-02T00:34:22.857Z,99.90
2023-05-02T00:36:50.988Z,99.90
2023-05-02T00:39:18.881Z,99.90
2023-05-02T00:41:48.154Z,99.90
2023-05-02T00:44:16.065Z,99.90
2023-05-02T00:46:44.267Z,99.90
2023-05-02T00:49:12.552Z,99.90
2023-05-02T00:51:41.279Z,99.90
2023-05-02T00:54:09.313Z,99.90
2023-05-02T00:56:37.346Z,99.90
2023-05-02T00:59:08.118Z,99.90
2023-05-02T01:01:51.316Z,99.90
2023-05-02T01:04:31.076Z,99.90
2023-05-02T01:07:13.642Z,99.90
2023-05-02T01:09:54.236Z,99.90
2023-05-02T01:12:29.478Z,99.90
2023-05-02T01:15:00.045Z,99.90
2023-05-02T01:17:32.659Z,99.90
2023-05-02T01:20:04.606Z,99.90
2023-05-02T01:22:34.613Z,99.90
2023-05-02T01:25:15.295Z,99.90
2023-05-02T01:27:52.719Z,99.90
2023-05-02T01:30:23.711Z,99.90
2023-05-02T01:32:54.979Z,99.90
2023-05-02T01:35:24.053Z,99.90
2023-05-02T01:37:54.413Z,99.90
2023-05-02T01:40:25.736Z,99.90
2023-05-02T01:42:55.280Z,99.90
2023-05-02T01:45:26.271Z,99.90
2023-05-02T01:47:55.918Z,99.90
2023-05-02T01:50:27.085Z,99.90
2023-05-02T01:52:56.350Z,99.90
2023-05-02T01:55:26.472Z,99.90
2023-05-02T01:57:56.749Z,99.90
2023-05-02T02:00:27.244Z,99.90
2023-05-02T02:02:59.351Z,99.90
2023-05-02T02:05:29.259Z,99.90
2023-05-02T02:07:58.721Z,99.90
2023-05-02T02:10:30.596Z,99.90
2023-05-02T02:13:05.433Z,99.90
2023-05-02T02:15:37.035Z,99.90
2023-05-02T02:18:11.549Z,99.90
2023-05-02T02:20:44.096Z,99.90
2023-05-02T02:23:13.144Z,99.90
2023-05-02T02:25:42.013Z,99.90
2023-05-02T02:28:09.991Z,99.90
2023-05-02T02:30:39.282Z,99.90
2023-05-02T02:33:07.213Z,99.90
2023-05-02T02:35:39.446Z,99.90
2023-05-02T02:38:15.634Z,99.90
2023-05-02T02:40:48.759Z,99.90
2023-05-02T02:43:25.017Z,99.90
2023-05-02T02:46:03.121Z,99.90
2023-05-02T02:48:36.805Z,99.90
2023-05-02T02:51:12.630Z,99.90
2023-05-02T02:53:51.799Z,99.90
2023-05-02T02:56:26.144Z,99.90
2023-05-02T02:58:59.473Z,99.90
2023-05-02T03:01:33.146Z,99.90
2023-05-02T03:04:03.079Z,99.90
2023-05-02T03:06:31.698Z,99.90
2023-05-02T03:08:59.900Z,99.90
2023-05-02T03:11:30.952Z,99.90
2023-05-02T03:13:59.641Z,99.90
2023-05-02T03:16:36.580Z,99.90
2023-05-02T03:19:07.590Z,99.90
2023-05-02T03:21:36.214Z,99.90
2023-05-02T03:24:11.573Z,99.90
2023-05-02T03:26:39.873Z,99.90
2023-05-02T03:29:10.827Z,99.90
2023-05-02T03:31:43.850Z,99.90
2023-05-02T03:34:11.836Z,99.90
2023-05-02T03:36:40.012Z,99.90
2023-05-02T03:39:08.006Z,99.90
2023-05-02T03:41:36.268Z,99.90
2023-05-02T03:44:08.540Z,99.90
2023-05-02T03:46:37.919Z,99.90
2023-05-02T03:49:10.945Z,99.90
2023-05-02T03:51:40.998Z,99.90
2023-05-02T03:54:09.813Z,99.90
2023-05-02T03:56:42.934Z,99.90
2023-05-02T03:59:34.042Z,99.90
2023-05-02T04:02:07.113Z,99.90
2023-05-02T04:04:43.923Z,99.90
2023-05-02T04:07:18.444Z,99.90
2023-05-02T04:09:49.834Z,99.90
2023-05-02T04:12:17.754Z,99.90
2023-05-02T04:14:49.305Z,99.90
2023-05-02T04:17:17.807Z,99.90
2023-05-02T04:19:51.427Z,99.90
2023-05-02T04:22:20.936Z,99.90
2023-05-02T04:24:55.529Z,99.90
2023-05-02T04:27:24.544Z,99.90
2023-05-02T04:29:53.643Z,99.90
2023-05-02T04:32:21.930Z,99.90
2023-05-02T04:34:52.042Z,99.90
2023-05-02T04:37:21.310Z,99.90
2023-05-02T04:39:50.303Z,99.90
2023-05-02T04:42:21.906Z,99.90
2023-05-02T04:45:16.207Z,99.90
2023-05-02T04:47:45.842Z,99.90
2023-05-02T04:50:15.667Z,99.90
2023-05-02T04:52:43.571Z,99.90
2023-05-02T04:55:11.760Z,99.90
2023-05-02T04:57:40.547Z,99.90
2023-05-02T05:00:13.100Z,99.90
2023-05-02T05:02:41.097Z,99.90
2023-05-02T05:05:10.821Z,99.90
2023-05-02T05:07:40.859Z,99.90
2023-05-02T05:10:11.378Z,99.90
2023-05-02T05:12:46.248Z,99.90
2023-05-02T05:15:15.322Z,99.90
2023-05-02T05:17:47.576Z,99.90
2023-05-02T05:20:15.640Z,99.90
2023-05-02T05:22:45.123Z,99.90
2023-05-02T05:25:15.042Z,99.90
2023-05-02T05:27:44.399Z,99.90
2023-05-02T05:30:13.574Z,99.90
2023-05-02T05:32:44.076Z,99.90
2023-05-02T05:35:13.060Z,99.90
2023-05-02T05:37:41.906Z,99.90
2023-05-02T05:40:14.484Z,99.90
2023-05-02T05:42:45.634Z,99.90
2023-05-02T05:45:20.411Z,99.90
2023-05-02T05:47:48.550Z,99.90
2023-05-02T05:50:16.633Z,99.90
2023-05-02T05:52:45.718Z,99.90
2023-05-02T05:55:16.234Z,99.90
2023-05-02T05:57:44.661Z,99.90
2023-05-02T06:00:14.128Z,99.90
2023-05-02T06:02:47.864Z,99.90
2023-05-02T06:05:28.233Z,99.90
2023-05-02T06:07:56.309Z,99.90
2023-05-02T06:10:25.969Z,99.90
2023-05-02T06:12:54.706Z,99.90
2023-05-02T06:15:27.520Z,99.90
2023-05-02T06:17:55.644Z,99.90
2023-05-02T06:20:23.601Z,99.90
2023-05-02T06:22:51.493Z,99.90
2023-05-02T06:25:19.528Z,99.90
2023-05-02T06:27:48.749Z,99.90
2023-05-02T06:30:16.669Z,99.90
2023-05-02T06:32:44.904Z,99.90
2023-05-02T06:35:12.859Z,99.90
2023-05-02T06:37:40.783Z,99.90
2023-05-02T06:40:10.389Z,99.90
2023-05-02T06:42:38.254Z,99.90
2023-05-02T06:45:08.811Z,99.90
2023-05-02T06:47:36.889Z,99.90
2023-05-02T06:50:05.203Z,99.90
2023-05-02T06:52:33.168Z,99.90
2023-05-02T06:55:01.011Z,99.90
2023-05-02T06:57:29.178Z,99.90
2023-05-02T06:59:57.764Z,99.90
2023-05-02T07:02:27.412Z,99.90
2023-05-02T07:04:55.555Z,99.90
2023-05-02T07:07:23.477Z,99.90
2023-05-02T07:09:52.391Z,99.90
2023-05-02T07:12:20.881Z,99.90
2023-05-02T07:14:48.744Z,99.90
2023-05-02T07:17:16.692Z,99.90
2023-05-02T07:19:45.932Z,99.90
2023-05-02T07:22:14.320Z,99.90
2023-05-02T07:24:42.726Z,99.90
2023-05-02T07:27:11.025Z,99.90
2023-05-02T07:29:39.204Z,99.90
2023-05-02T07:32:07.511Z,99.90
2023-05-02T07:34:35.478Z,99.90
2023-05-02T07:37:04.745Z,99.90
2023-05-02T07:39:34.226Z,99.90
2023-05-02T07:42:03.676Z,99.90
2023-05-02T07:44:33.185Z,99.90
2023-05-02T07:47:01.122Z,99.90
2023-05-02T07:49:29.197Z,99.90
2023-05-02T07:51:57.170Z,99.90
2023-05-02T07:54:27.754Z,99.90
2023-05-02T07:56:58.267Z,99.90
2023-05-02T07:59:26.263Z,99.90
2023-05-02T08:01:54.437Z,99.90
2023-05-02T08:04:22.435Z,99.90
2023-05-02T08:06:50.660Z,99.90
2023-05-02T08:09:18.670Z,99.90
2023-05-02T08:11:48.212Z,99.90
2023-05-02T08:14:17.288Z,99.90
2023-05-02T08:16:46.616Z,99.90
2023-05-02T08:19:14.862Z,99.90
2023-05-02T08:21:43.202Z,99.90
2023-05-02T08:24:11.087Z,99.90
2023-05-02T08:26:38.900Z,99.90
2023-05-02T08:29:08.097Z,99.90
2023-05-02T08:31:36.115Z,99.90
2023-05-02T08:34:03.979Z,99.90
2023-05-02T08:36:32.339Z,99.90
2023-05-02T08:39:00.237Z,99.90
2023-05-02T08:41:31.110Z,99.90
2023-05-02T08:44:00.290Z,99.90
2023-05-02T08:46:29.975Z,99.90
2023-05-02T08:48:59.776Z,99.90
2023-05-02T08:51:29.792Z,99.90
2023-05-02T08:53:59.287Z,99.90
2023-05-02T08:56:27.240Z,99.90
2023-05-02T08:58:55.288Z,99.90
2023-05-02T09:01:24.731Z,99.90
2023-05-02T09:03:55.896Z,99.90
2023-05-02T09:06:23.906Z,99.90
2023-05-02T09:08:53.393Z,99.90
2023-05-02T09:11:21.693Z,99.90
2023-05-02T09:13:52.143Z,99.90
2023-05-02T09:16:22.846Z,99.90
2023-05-02T09:18:53.995Z,99.90
2023-05-02T09:21:23.601Z,99.90
2023-05-02T09:23:53.301Z,99.90
2023-05-02T09:26:22.961Z,99.90
2023-05-02T09:28:52.556Z,99.90
2023-05-02T09:31:43.581Z,99.90
2023-05-02T09:34:12.783Z,99.90
2023-05-02T09:36:42.022Z,99.90
2023-05-02T09:39:11.934Z,99.90
2023-05-02T09:41:41.724Z,99.90
2023-05-02T09:44:12.520Z,99.90
2023-05-02T09:46:44.884Z,99.90
2023-05-02T09:49:14.882Z,99.90
2023-05-02T09:51:44.073Z,99.90
2023-05-02T09:54:12.436Z,99.90
2023-05-02T09:56:56.618Z,99.90
2023-05-02T09:59:25.626Z,99.90
2023-05-02T10:01:58.081Z,99.90
2023-05-02T10:04:29.951Z,99.90
2023-05-02T10:06:58.701Z,99.90
2023-05-02T10:09:27.491Z,99.90
2023-05-02T10:11:56.506Z,99.90
2023-05-02T10:14:29.477Z,99.90
2023-05-02T10:17:02.183Z,99.90
2023-05-02T10:19:42.818Z,99.90
2023-05-02T10:22:11.443Z,99.90
2023-05-02T10:24:40.789Z,99.90
2023-05-02T10:27:09.264Z,99.90
2023-05-02T10:29:38.786Z,99.90
2023-05-02T10:32:08.978Z,99.90
2023-05-02T10:34:38.921Z,99.90
2023-05-02T10:37:06.768Z,99.90
2023-05-02T10:39:35.096Z,99.90
2023-05-02T10:42:05.595Z,99.90
2023-05-02T10:44:34.810Z,99.90
2023-05-02T10:47:03.323Z,99.90
2023-05-02T10:49:31.412Z,99.90
2023-05-02T10:52:00.713Z,99.90
2023-05-02T10:54:28.582Z,99.90
2023-05-02T10:57:07.781Z,99.90
2023-05-02T10:59:37.724Z,99.90
2023-05-02T11:02:07.274Z,99.90
2023-05-02T11:05:04.192Z,99.90
2023-05-02T11:07:35.163Z,99.90
2023-05-02T11:10:26.178Z,99.90
2023-05-02T11:12:54.941Z,99.90
2023-05-02T11:15:57.791Z,99.90
2023-05-02T11:18:25.810Z,99.90
2023-05-02T11:20:53.756Z,99.90
2023-05-02T11:23:26.133Z,99.90
2023-05-02T11:25:56.700Z,99.90
2023-05-02T11:28:42.438Z,98.80
2023-05-02T11:31:31.143Z,98.50
2023-05-02T11:33:59.663Z,98.20
2023-05-02T11:36:33.536Z,98.30
2023-05-02T11:39:05.224Z,97.80
2023-05-02T11:41:43.120Z,97.90
2023-05-02T11:44:11.371Z,97.70
2023-05-02T11:46:40.054Z,99.20
2023-05-02T11:49:09.412Z,99.90
2023-05-02T11:51:38.545Z,99.90
2023-05-02T11:54:09.086Z,99.90
2023-05-02T11:56:37.176Z,99.90
2023-05-02T11:59:06.808Z,99.90
2023-05-02T12:01:34.740Z,99.90
2023-05-02T12:04:04.210Z,97.30
2023-05-02T12:06:32.249Z,96.00
2023-05-02T12:09:12.336Z,95.60
2023-05-02T12:11:40.261Z,95.30
2023-05-02T12:14:08.226Z,94.30
2023-05-02T12:16:36.620Z,93.40
2023-05-02T12:19:05.611Z,93.10
2023-05-02T12:21:34.137Z,92.90
2023-05-02T12:24:02.721Z,93.40
2023-05-02T12:26:33.665Z,94.10
2023-05-02T12:29:02.780Z,95.50
2023-05-02T12:31:32.190Z,96.60
2023-05-02T12:34:01.432Z,97.40
2023-05-02T12:36:29.928Z,97.70
2023-05-02T12:38:59.696Z,96.70
2023-05-02T12:41:37.186Z,95.60
2023-05-02T12:44:06.051Z,95.50
2023-05-02T12:46:34.038Z,95.20
2023-05-02T12:49:07.971Z,94.70
2023-05-02T12:51:36.406Z,93.60
2023-05-02T12:54:04.819Z,92.50
2023-05-02T12:56:41.395Z,91.50
2023-05-02T12:59:09.783Z,91.00
2023-05-02T13:01:37.847Z,89.70
2023-05-02T13:04:06.509Z,88.50
2023-05-02T13:06:37.573Z,88.50
2023-05-02T13:09:05.730Z,86.10
2023-05-02T13:11:34.446Z,84.90
2023-05-02T13:14:05.699Z,84.80
2023-05-02T13:16:36.556Z,81.40
2023-05-02T13:19:05.093Z,83.20
2023-05-02T13:21:33.267Z,83.70
2023-05-02T13:24:01.320Z,86.50
2023-05-02T13:26:29.216Z,87.40
2023-05-02T13:28:57.133Z,86.90
2023-05-02T13:31:26.429Z,86.80
2023-05-02T13:33:54.749Z,87.10
2023-05-02T13:36:24.408Z,87.60
2023-05-02T13:38:52.319Z,88.50
2023-05-02T13:41:20.242Z,88.00
2023-05-02T13:43:48.264Z,84.50
2023-05-02T13:46:16.642Z,83.40
2023-05-02T13:48:45.942Z,83.80
2023-05-02T13:51:13.837Z,85.50
2023-05-02T13:53:41.940Z,85.90
2023-05-02T13:56:09.881Z,86.50
2023-05-02T13:58:37.746Z,87.00
2023-05-02T14:01:06.011Z,85.60
2023-05-02T14:03:33.970Z,82.70
2023-05-02T14:06:03.345Z,82.20
2023-05-02T14:08:31.260Z,80.30
2023-05-02T14:10:59.262Z,78.30
2023-05-02T14:13:27.554Z,74.30
2023-05-02T14:15:55.866Z,71.80
2023-05-02T14:18:23.795Z,70.10
2023-05-02T14:20:53.765Z,67.90
2023-05-02T14:23:22.949Z,65.50
2023-05-02T14:25:50.896Z,66.50
2023-05-02T14:28:18.815Z,65.40
2023-05-02T14:30:48.916Z,65.90
2023-05-02T14:33:16.983Z,67.10
2023-05-02T14:35:44.956Z,65.90
2023-05-02T14:38:12.929Z,64.80
2023-05-02T14:40:42.395Z,63.70
2023-05-02T14:43:14.325Z,62.50
2023-05-02T14:45:42.512Z,62.10
2023-05-02T14:48:11.681Z,62.10
2023-05-02T14:50:40.071Z,61.90
2023-05-02T14:53:08.072Z,60.90
2023-05-02T14:55:38.700Z,59.20
2023-05-02T14:58:08.785Z,58.20
2023-05-02T15:00:38.252Z,58.20
2023-05-02T15:03:07.842Z,57.60
2023-05-02T15:05:37.638Z,59.10
2023-05-02T15:08:05.966Z,62.40
2023-05-02T15:10:37.871Z,63.60
2023-05-02T15:13:08.583Z,65.00
2023-05-02T15:15:37.405Z,67.40
2023-05-02T15:18:05.949Z,68.20
2023-05-02T15:20:50.506Z,68.50
2023-05-02T15:23:24.966Z,67.70
2023-05-02T15:25:52.953Z,65.00
2023-05-02T15:28:22.224Z,64.00
2023-05-02T15:30:50.180Z,61.40
2023-05-02T15:33:18.065Z,60.70
2023-05-02T15:35:55.039Z,60.50
2023-05-02T15:38:23.373Z,61.00
2023-05-02T15:40:55.963Z,59.20
2023-05-02T15:43:25.786Z,58.90
2023-05-02T15:45:55.153Z,58.70
2023-05-02T15:48:24.013Z,58.20
2023-05-02T15:50:52.443Z,57.40
2023-05-02T15:53:22.114Z,56.60
2023-05-02T15:55:51.154Z,57.60
2023-05-02T15:58:22.726Z,58.10
2023-05-02T16:00:52.522Z,58.30
2023-05-02T16:03:20.864Z,59.10
2023-05-02T16:05:48.749Z,57.80
2023-05-02T16:08:16.676Z,56.50
2023-05-02T16:10:44.614Z,56.10
2023-05-02T16:13:12.630Z,55.00
2023-05-02T16:15:40.591Z,54.70
2023-05-02T16:18:10.501Z,54.60
2023-05-02T16:20:39.670Z,53.40
2023-05-02T16:23:10.899Z,52.80
2023-05-02T16:25:38.802Z,51.70
2023-05-02T16:28:07.110Z,51.80
2023-05-02T16:30:37.339Z,50.50
2023-05-02T16:33:05.407Z,49.90
2023-05-02T16:35:34.846Z,48.90
2023-05-02T16:38:04.009Z,48.00
2023-05-02T16:40:31.846Z,48.00
2023-05-02T16:43:00.036Z,47.60
2023-05-02T16:45:27.934Z,48.00
2023-05-02T16:47:56.019Z,48.30
2023-05-02T16:50:24.220Z,47.90
2023-05-02T16:52:53.444Z,47.40
2023-05-02T16:55:21.782Z,47.30
2023-05-02T16:57:49.697Z,47.30
2023-05-02T17:00:20.202Z,46.90
2023-05-02T17:02:48.671Z,47.10
2023-05-02T17:05:16.950Z,46.40
2023-05-02T17:07:44.994Z,45.70
2023-05-02T17:10:14.353Z,46.10
2023-05-02T17:12:44.004Z,45.80
2023-05-02T17:15:13.973Z,46.30
2023-05-02T17:17:41.948Z,46.40
2023-05-02T17:20:11.043Z,46.60
2023-05-02T17:22:39.433Z,47.20
2023-05-02T17:25:07.782Z,47.50
2023-05-02T17:27:39.175Z,47.20
2023-05-02T17:30:09.829Z,47.80
2023-05-02T17:32:38.481Z,48.60
2023-05-02T17:35:07.541Z,48.70
2023-05-02T17:37:38.001Z,49.00
2023-05-02T17:40:07.265Z,50.00
2023-05-02T17:42:36.558Z,50.70
2023-05-02T17:45:05.266Z,52.10
2023-05-02T17:47:33.165Z,54.50
2023-05-02T17:50:04.659Z,56.80
2023-05-02T17:52:34.256Z,58.40
2023-05-02T17:55:02.274Z,60.40
2023-05-02T17:57:30.410Z,62.10
2023-05-02T18:00:00.342Z,63.70
2023-05-02T18:02:28.685Z,64.80
2023-05-02T18:04:56.679Z,66.30
2023-05-02T18:07:24.849Z,67.40
2023-05-02T18:09:52.910Z,68.80
2023-05-02T18:12:21.051Z,70.30
2023-05-02T18:14:49.192Z,72.20
2023-05-02T18:17:20.435Z,73.70
2023-05-02T18:19:50.092Z,74.60
2023-05-02T18:22:20.090Z,75.40
2023-05-02T18:24:48.118Z,76.50
2023-05-02T18:27:16.435Z,78.10
2023-05-02T18:29:44.314Z,79.30
2023-05-02T18:32:12.243Z,80.10
2023-05-02T18:34:41.488Z,80.90
2023-05-02T18:37:09.717Z,82.30
2023-05-02T18:39:37.758Z,83.10
2023-05-02T18:42:06.211Z,84.00
2023-05-02T18:44:34.110Z,85.20
2023-05-02T18:47:02.088Z,85.80
2023-05-02T18:49:30.070Z,86.80
2023-05-02T18:51:59.698Z,87.60
2023-05-02T18:54:28.825Z,88.60
2023-05-02T18:56:57.126Z,90.10
2023-05-02T18:59:28.009Z,90.90
2023-05-02T19:01:56.160Z,91.50
2023-05-02T19:04:24.292Z,92.10
2023-05-02T19:06:56.157Z,92.80
2023-05-02T19:09:26.598Z,93.60
2023-05-02T19:11:55.023Z,94.30
2023-05-02T19:14:22.967Z,95.10
2023-05-02T19:16:51.087Z,95.70
2023-05-02T19:19:21.173Z,96.20
2023-05-02T19:21:51.144Z,96.80
2023-05-02T19:24:19.662Z,97.30
2023-05-02T19:26:49.039Z,97.90
2023-05-02T19:29:17.094Z,98.30
2023-05-02T19:31:45.062Z,98.80
2023-05-02T19:34:13.190Z,99.00
2023-05-02T19:36:41.176Z,99.30
2023-05-02T19:39:10.766Z,99.50
2023-05-02T19:41:40.058Z,99.90
2023-05-02T19:44:09.362Z,99.90
2023-05-02T19:46:37.651Z,99.90
2023-05-02T19:49:05.713Z,99.90
2023-05-02T19:51:35.291Z,99.90
2023-05-02T19:54:03.337Z,99.90
2023-05-02T19:56:34.160Z,99.90
2023-05-02T19:59:02.066Z,99.90
2023-05-02T20:01:31.706Z,99.90
2023-05-02T20:04:00.136Z,99.90
2023-05-02T20:06:28.849Z,99.90
2023-05-02T20:08:56.937Z,99.90
2023-05-02T20:11:25.849Z,99.90
2023-05-02T20:13:54.324Z,99.90
2023-05-02T20:16:24.242Z,99.90
2023-05-02T20:18:53.798Z,99.90
2023-05-02T20:21:21.759Z,99.90
2023-05-02T20:23:49.868Z,99.90
2023-05-02T20:26:18.547Z,99.90
2023-05-02T20:28:46.515Z,99.90
2023-05-02T20:31:14.676Z,99.90
2023-05-02T20:33:45.650Z,99.90
2023-05-02T20:36:15.913Z,99.90
2023-05-02T20:38:44.673Z,99.90
2023-05-02T20:41:13.937Z,99.90
2023-05-02T20:43:44.703Z,99.90
2023-05-02T20:46:16.229Z,99.90
2023-05-02T20:48:46.625Z,99.90
2023-05-02T20:51:21.044Z,99.90
2023-05-02T20:53:49.421Z,99.90
2023-05-02T20:56:17.781Z,99.90
2023-05-02T20:58:45.988Z,99.90
2023-05-02T21:01:15.184Z,99.90
2023-05-02T21:03:43.128Z,99.90
2023-05-02T21:06:15.772Z,99.90
2023-05-02T21:08:43.702Z,99.90
2023-05-02T21:11:15.359Z,99.90
2023-05-02T21:13:46.117Z,99.90
2023-05-02T21:16:22.851Z,99.90
2023-05-02T21:18:50.817Z,99.90
2023-05-02T21:21:20.144Z,99.90
2023-05-02T21:23:48.093Z,99.90
2023-05-02T21:26:16.533Z,99.90
2023-05-02T21:28:44.472Z,99.90
2023-05-02T21:31:12.729Z,99.90
2023-05-02T21:33:41.532Z,99.90
2023-05-02T21:36:10.240Z,99.90
2023-05-02T21:38:39.454Z,99.90
2023-05-02T21:41:08.800Z,99.90
2023-05-02T21:43:39.655Z,99.90
2023-05-02T21:46:07.720Z,99.90
2023-05-02T21:48:35.852Z,99.90
2023-05-02T21:51:08.141Z,99.90
2023-05-02T21:53:36.047Z,99.90
2023-05-02T21:56:05.864Z,99.90
2023-05-02T21:58:34.260Z,99.90
2023-05-02T22:01:03.311Z,99.90
2023-05-02T22:03:34.554Z,99.90
2023-05-02T22:06:06.020Z,99.90
2023-05-02T22:08:34.738Z,99.90
2023-05-02T22:11:10.245Z,99.90
2023-05-02T22:13:38.261Z,99.90
2023-05-02T22:16:07.544Z,99.90
2023-05-02T22:18:35.514Z,99.90
2023-05-02T22:21:03.719Z,99.90
2023-05-02T22:23:32.227Z,99.90
2023-05-02T22:26:00.251Z,99.90
2023-05-02T22:28:31.131Z,99.90
2023-05-02T22:30:59.686Z,99.90
2023-05-02T22:33:27.536Z,99.90
2023-05-02T22:36:00.251Z,99.90
2023-05-02T22:38:28.085Z,99.90
2023-05-02T22:40:59.213Z,99.90
2023-05-02T22:43:27.409Z,99.90
2023-05-02T22:45:59.943Z,99.90
2023-05-02T22:48:30.840Z,99.90
2023-05-02T22:51:00.705Z,99.90
2023-05-02T22:53:28.558Z,99.90
2023-05-02T22:55:57.313Z,99.90
2023-05-02T22:58:27.507Z,99.90
2023-05-02T23:00:57.887Z,99.90
2023-05-02T23:03:27.293Z,99.90
2023-05-02T23:05:55.251Z,99.90
2023-05-02T23:08:23.169Z,99.90
2023-05-02T23:10:51.075Z,99.90
2023-05-02T23:13:19.047Z,99.90
2023-05-02T23:15:47.163Z,99.90
2023-05-02T23:18:15.186Z,99.90
2023-05-02T23:20:44.569Z,99.90
2023-05-02T23:23:12.646Z,99.90
2023-05-02T23:25:40.962Z,99.90
2023-05-02T23:28:08.877Z,99.90
2023-05-02T23:30:39.518Z,99.90
2023-05-02T23:33:07.952Z,99.90
2023-05-02T23:35:36.479Z,99.90
2023-05-02T23:38:08.070Z,99.90
2023-05-02T23:40:36.429Z,99.90
2023-05-02T23:43:04.969Z,99.90
2023-05-02T23:45:32.946Z,99.90
2023-05-02T23:48:00.920Z,99.90
2023-05-02T23:50:28.927Z,99.90
2023-05-02T23:52:56.831Z,99.90
2023-05-02T23:55:26.916Z,99.90
2023-05-02T23:57:54.913Z,99.90
